Time;durP1;ratioP1;P1;durP2;ratioP2;P2;SDS_P1;SDS_P2;PMS_P1;PMS_P2;Temp;Humidity;BMP_temperature;BMP_pressure;BME280_temperature;BME280_humidity;BME280_pressure;Samples;Min_cycle;Max_cycle;Signal;HPM_P1;HPM_P2
2022/07/27 00:00:58;;;;;;;;;;;21.60;99.90;;;;;;4993404;28;19918;-78
2022/07/27 00:03:29;;;;;;;;;;;21.60;99.90;;;;;;4993988;28;19924;-78
2022/07/27 00:05:55;;;;;;;;;;;21.70;99.90;;;;;;4977891;28;19918;-78
2022/07/27 00:08:31;;;;;;;;;;;21.70;99.90;;;;;;4978215;28;19925;-78
2022/07/27 00:10:56;;;;;;;;;;;21.70;99.90;;;;;;4977060;28;19917;-78
2022/07/27 00:13:25;;;;;;;;;;;21.70;99.90;;;;;;4979740;28;19945;-78
2022/07/27 00:15:52;;;;;;;;;;;21.70;99.90;;;;;;4993680;28;20319;-77
2022/07/27 00:18:19;;;;;;;;;;;21.70;99.90;;;;;;4974908;28;19914;-78
2022/07/27 00:20:44;;;;;;;;;;;21.70;99.90;;;;;;4993739;28;19920;-77
2022/07/27 00:23:16;;;;;;;;;;;21.80;99.90;;;;;;4979279;28;20008;-77
2022/07/27 00:25:42;;;;;;;;;;;21.80;99.90;;;;;;4978000;28;19914;-77
2022/07/27 00:28:12;;;;;;;;;;;21.70;99.90;;;;;;4977808;28;19910;-78
2022/07/27 00:30:37;;;;;;;;;;;21.70;99.90;;;;;;4975622;28;19976;-78
2022/07/27 00:33:12;;;;;;;;;;;21.70;99.90;;;;;;4979268;28;20383;-78
2022/07/27 00:35:40;;;;;;;;;;;21.70;99.90;;;;;;4976377;28;19996;-78
2022/07/27 00:38:07;;;;;;;;;;;21.70;99.90;;;;;;4982851;28;19914;-77
2022/07/27 00:40:35;;;;;;;;;;;21.60;99.90;;;;;;4977005;28;19950;-78
2022/07/27 00:43:10;;;;;;;;;;;21.70;99.90;;;;;;4976348;28;19910;-78
2022/07/27 00:45:37;;;;;;;;;;;21.70;99.90;;;;;;4977785;28;19920;-77
2022/07/27 00:48:03;;;;;;;;;;;21.70;99.90;;;;;;4976352;28;19933;-78
2022/07/27 00:50:29;;;;;;;;;;;21.70;99.90;;;;;;4972142;28;20363;-77
2022/07/27 00:52:57;;;;;;;;;;;21.70;99.90;;;;;;4982830;28;19922;-79
2022/07/27 00:55:23;;;;;;;;;;;21.60;99.90;;;;;;4975936;28;19922;-78
2022/07/27 00:57:49;;;;;;;;;;;21.70;99.90;;;;;;4998046;28;20287;-78
2022/07/27 01:00:15;;;;;;;;;;;21.70;99.90;;;;;;4993210;28;19918;-77
2022/07/27 01:02:41;;;;;;;;;;;21.70;99.90;;;;;;4977477;28;19914;-78
2022/07/27 01:05:07;;;;;;;;;;;21.80;99.90;;;;;;4994342;28;20399;-77
2022/07/27 01:07:38;;;;;;;;;;;21.80;99.90;;;;;;4981601;28;19988;-78
2022/07/27 01:10:06;;;;;;;;;;;21.80;99.90;;;;;;4982824;28;19941;-78
2022/07/27 01:12:34;;;;;;;;;;;21.90;99.90;;;;;;4982339;28;19917;-77
2022/07/27 01:15:02;;;;;;;;;;;21.90;99.90;;;;;;4981400;28;19957;-78
2022/07/27 01:17:32;;;;;;;;;;;21.80;99.90;;;;;;4982468;28;20331;-77
2022/07/27 01:20:02;;;;;;;;;;;21.70;99.90;;;;;;4980337;28;19910;-77
2022/07/27 01:22:29;;;;;;;;;;;21.60;99.90;;;;;;4983146;28;20062;-78
2022/07/27 01:24:57;;;;;;;;;;;21.60;99.90;;;;;;4986176;28;19996;-78
2022/07/27 01:27:29;;;;;;;;;;;21.60;99.90;;;;;;4978565;28;19923;-78
2022/07/27 01:30:25;;;;;;;;;;;21.70;99.90;;;;;;4985176;28;19926;-77
2022/07/27 01:33:01;;;;;;;;;;;21.60;99.90;;;;;;4986637;28;19917;-77
2022/07/27 01:35:29;;;;;;;;;;;21.70;99.90;;;;;;4982211;28;19918;-77
2022/07/27 01:37:54;;;;;;;;;;;21.70;99.90;;;;;;4982298;28;20442;-78
2022/07/27 01:40:20;;;;;;;;;;;21.70;99.90;;;;;;4985855;28;19914;-78
2022/07/27 01:42:54;;;;;;;;;;;21.80;99.90;;;;;;4982134;28;19917;-77
2022/07/27 01:45:20;;;;;;;;;;;21.70;99.90;;;;;;4980634;28;19914;-77
2022/07/27 01:47:46;;;;;;;;;;;21.70;99.90;;;;;;4982156;28;19914;-77
2022/07/27 01:50:12;;;;;;;;;;;21.70;99.90;;;;;;4995843;28;20486;-78
2022/07/27 01:52:40;;;;;;;;;;;21.80;99.90;;;;;;4983975;28;19917;-78
2022/07/27 01:55:09;;;;;;;;;;;21.70;99.90;;;;;;4986408;28;19914;-77
2022/07/27 01:57:37;;;;;;;;;;;21.80;99.90;;;;;;4978690;28;20275;-78
2022/07/27 02:00:06;;;;;;;;;;;21.70;99.90;;;;;;4996111;28;19972;-77
2022/07/27 02:02:37;;;;;;;;;;;21.70;99.90;;;;;;4985207;28;19910;-78
2022/07/27 02:05:03;;;;;;;;;;;21.80;99.90;;;;;;4981541;28;19922;-77
2022/07/27 02:07:37;;;;;;;;;;;21.80;99.90;;;;;;4981886;28;19968;-78
2022/07/27 02:10:03;;;;;;;;;;;21.70;99.90;;;;;;4999557;28;19916;-78
2022/07/27 02:12:35;;;;;;;;;;;21.70;99.90;;;;;;4996240;28;19921;-78
2022/07/27 02:15:09;;;;;;;;;;;21.60;99.90;;;;;;4981985;28;19985;-78
2022/07/27 02:17:35;;;;;;;;;;;21.50;99.90;;;;;;4996300;28;20633;-78
2022/07/27 02:20:01;;;;;;;;;;;21.40;99.90;;;;;;4981279;28;19961;-78
2022/07/27 02:22:28;;;;;;;;;;;21.40;99.90;;;;;;4981375;28;20761;-77
2022/07/27 02:24:56;;;;;;;;;;;21.40;99.90;;;;;;4983419;28;19917;-77
2022/07/27 02:27:23;;;;;;;;;;;21.30;99.90;;;;;;4977507;28;20000;-77
2022/07/27 02:29:54;;;;;;;;;;;21.40;99.90;;;;;;5000388;28;19910;-78
2022/07/27 02:32:20;;;;;;;;;;;21.40;99.90;;;;;;4981209;28;19913;-77
2022/07/27 02:34:46;;;;;;;;;;;21.30;99.90;;;;;;4979918;28;19918;-79
2022/07/27 02:37:16;;;;;;;;;;;21.10;99.90;;;;;;4981088;28;20566;-77
2022/07/27 02:39:45;;;;;;;;;;;21.00;99.90;;;;;;4979728;28;20370;-78
2022/07/27 02:42:14;;;;;;;;;;;21.00;99.90;;;;;;4980474;28;19918;-79
2022/07/27 02:44:40;;;;;;;;;;;20.90;99.90;;;;;;4979357;28;20367;-77
2022/07/27 02:47:07;;;;;;;;;;;20.90;99.90;;;;;;4981982;28;19918;-78
2022/07/27 02:49:36;;;;;;;;;;;20.80;99.90;;;;;;4980982;28;19914;-78
2022/07/27 02:52:02;;;;;;;;;;;20.70;99.90;;;;;;4978777;28;19917;-77
2022/07/27 02:54:31;;;;;;;;;;;20.80;99.90;;;;;;4981406;28;20004;-77
2022/07/27 02:57:11;;;;;;;;;;;20.90;99.90;;;;;;4979386;28;19918;-77
2022/07/27 02:59:40;;;;;;;;;;;21.00;99.90;;;;;;4975857;28;19914;-78
2022/07/27 03:02:07;;;;;;;;;;;21.10;99.90;;;;;;4984930;28;20000;-78
2022/07/27 03:04:36;;;;;;;;;;;21.10;99.90;;;;;;4980981;28;19917;-78
2022/07/27 03:07:09;;;;;;;;;;;21.00;99.90;;;;;;4978770;28;20421;-77
2022/07/27 03:09:36;;;;;;;;;;;21.00;99.90;;;;;;4979769;28;19961;-78
2022/07/27 03:12:06;;;;;;;;;;;21.00;99.90;;;;;;4979798;28;19914;-78
2022/07/27 03:14:34;;;;;;;;;;;21.00;99.90;;;;;;4983885;28;20275;-77
2022/07/27 03:17:06;;;;;;;;;;;21.00;99.90;;;;;;4976110;28;19917;-77
2022/07/27 03:19:36;;;;;;;;;;;21.00;99.90;;;;;;4975340;28;19971;-77
2022/07/27 03:22:03;;;;;;;;;;;21.10;99.90;;;;;;4991454;28;20008;-77
2022/07/27 03:24:28;;;;;;;;;;;21.10;99.90;;;;;;4979521;28;19910;-79
2022/07/27 03:26:55;;;;;;;;;;;21.10;99.90;;;;;;4979505;28;19925;-78
2022/07/27 03:29:20;;;;;;;;;;;21.00;99.90;;;;;;4980146;28;20467;-78
2022/07/27 03:31:52;;;;;;;;;;;20.90;99.90;;;;;;4993955;28;19918;-78
2022/07/27 03:34:19;;;;;;;;;;;20.90;99.90;;;;;;4978461;28;20287;-78
2022/07/27 03:36:50;;;;;;;;;;;20.90;99.90;;;;;;4978815;28;19953;-78
2022/07/27 03:39:18;;;;;;;;;;;20.90;99.90;;;;;;4994717;28;20016;-77
2022/07/27 03:41:44;;;;;;;;;;;20.80;99.90;;;;;;4977958;28;19971;-77
2022/07/27 03:44:10;;;;;;;;;;;20.80;99.90;;;;;;4982493;28;20270;-76
2022/07/27 03:46:36;;;;;;;;;;;20.80;99.90;;;;;;4976054;28;19909;-76
2022/07/27 03:49:07;;;;;;;;;;;20.70;99.90;;;;;;4980113;28;19956;-76
2022/07/27 03:51:32;;;;;;;;;;;20.60;99.90;;;;;;4978153;28;19910;-77
2022/07/27 03:53:59;;;;;;;;;;;20.40;99.90;;;;;;4975649;28;20283;-77
2022/07/27 03:56:25;;;;;;;;;;;20.50;99.90;;;;;;4979784;28;20338;-77
2022/07/27 03:58:51;;;;;;;;;;;20.50;99.90;;;;;;4979411;28;19965;-77
2022/07/27 04:01:23;;;;;;;;;;;20.50;99.90;;;;;;4978916;28;20056;-78
2022/07/27 04:03:50;;;;;;;;;;;20.50;99.90;;;;;;4999955;28;19968;-77
2022/07/27 04:06:21;;;;;;;;;;;20.40;99.90;;;;;;4978793;28;19921;-77
2022/07/27 04:08:50;;;;;;;;;;;20.20;99.90;;;;;;4979420;28;20005;-77
2022/07/27 04:11:17;;;;;;;;;;;20.10;99.90;;;;;;4978857;28;20378;-77
2022/07/27 04:13:45;;;;;;;;;;;20.00;99.90;;;;;;4979539;28;19917;-77
2022/07/27 04:16:17;;;;;;;;;;;20.00;99.90;;;;;;4983151;28;20279;-77
2022/07/27 04:18:44;;;;;;;;;;;19.90;99.90;;;;;;4976930;28;19914;-77
2022/07/27 04:21:10;;;;;;;;;;;19.90;99.90;;;;;;4976108;28;19910;-77
2022/07/27 04:23:36;;;;;;;;;;;19.90;99.90;;;;;;4978104;28;19972;-77
2022/07/27 04:26:10;;;;;;;;;;;19.90;99.90;;;;;;4978799;28;19910;-77
2022/07/27 04:28:45;;;;;;;;;;;19.90;99.90;;;;;;4974284;28;20135;-77
2022/07/27 04:31:15;;;;;;;;;;;19.90;99.90;;;;;;4982445;28;19914;-75
2022/07/27 04:33:43;;;;;;;;;;;20.00;99.90;;;;;;4982182;28;19960;-76
2022/07/27 04:36:10;;;;;;;;;;;20.10;99.90;;;;;;4978659;28;19956;-75
2022/07/27 04:38:37;;;;;;;;;;;20.20;99.90;;;;;;4978031;28;19918;-76
2022/07/27 04:41:03;;;;;;;;;;;20.20;99.90;;;;;;4975087;28;19914;-77
2022/07/27 04:43:36;;;;;;;;;;;20.30;99.90;;;;;;4978189;28;20328;-77
2022/07/27 04:46:14;;;;;;;;;;;20.50;99.90;;;;;;4978463;28;19910;-78
2022/07/27 04:48:40;;;;;;;;;;;20.80;99.90;;;;;;4977303;28;19909;-77
2022/07/27 04:51:06;;;;;;;;;;;20.90;99.90;;;;;;4982536;28;20670;-77
2022/07/27 04:53:37;;;;;;;;;;;20.90;99.90;;;;;;4988092;28;19910;-77
2022/07/27 04:56:05;;;;;;;;;;;20.80;99.90;;;;;;4979003;28;19910;-78
2022/07/27 04:58:31;;;;;;;;;;;20.90;99.90;;;;;;4980711;28;20540;-77
2022/07/27 05:01:10;;;;;;;;;;;20.80;99.90;;;;;;4975105;28;19921;-78
2022/07/27 05:03:35;;;;;;;;;;;20.80;99.90;;;;;;4977249;28;19961;-78
2022/07/27 05:06:03;;;;;;;;;;;20.90;99.90;;;;;;4997783;28;19993;-78
2022/07/27 05:08:42;;;;;;;;;;;21.10;99.90;;;;;;4974425;28;19920;-77
2022/07/27 05:11:08;;;;;;;;;;;21.30;99.90;;;;;;4974423;28;19917;-78
2022/07/27 05:13:39;;;;;;;;;;;21.50;99.90;;;;;;4977085;28;19910;-78
2022/07/27 05:16:12;;;;;;;;;;;21.50;99.90;;;;;;4997331;28;19909;-78
2022/07/27 05:18:41;;;;;;;;;;;21.70;99.90;;;;;;4975717;28;20306;-78
2022/07/27 05:21:07;;;;;;;;;;;21.90;99.90;;;;;;4980894;28;20332;-78
2022/07/27 05:23:33;;;;;;;;;;;22.10;99.90;;;;;;4974112;28;19937;-79
2022/07/27 05:25:59;;;;;;;;;;;22.20;99.90;;;;;;4978029;28;19921;-77
2022/07/27 05:28:26;;;;;;;;;;;22.50;99.90;;;;;;4978561;28;19918;-78
2022/07/27 05:30:52;;;;;;;;;;;22.80;99.90;;;;;;4977753;28;20025;-78
2022/07/27 05:33:21;;;;;;;;;;;23.00;99.90;;;;;;4979329;28;19917;-78
2022/07/27 05:35:48;;;;;;;;;;;23.30;99.90;;;;;;4978367;28;19913;-78
2022/07/27 05:38:20;;;;;;;;;;;23.50;99.00;;;;;;4982493;28;19975;-78
2022/07/27 05:40:47;;;;;;;;;;;23.70;99.30;;;;;;4980024;28;19913;-78
2022/07/27 05:43:14;;;;;;;;;;;23.70;98.80;;;;;;4977913;28;19918;-78
2022/07/27 05:45:39;;;;;;;;;;;23.70;98.30;;;;;;4977024;28;19917;-78
2022/07/27 05:48:05;;;;;;;;;;;24.10;97.60;;;;;;4975162;28;19910;-78
2022/07/27 05:50:36;;;;;;;;;;;24.60;96.40;;;;;;4976257;28;19914;-78
2022/07/27 05:53:02;;;;;;;;;;;24.70;96.00;;;;;;4982096;28;19929;-78
2022/07/27 05:55:28;;;;;;;;;;;25.10;95.70;;;;;;4992657;28;19925;-79
2022/07/27 05:58:01;;;;;;;;;;;25.60;95.00;;;;;;4986407;28;20017;-80
2022/07/27 06:00:40;;;;;;;;;;;26.00;94.60;;;;;;4980122;28;19913;-79
2022/07/27 06:03:10;;;;;;;;;;;26.60;93.30;;;;;;4978526;28;20326;-79
2022/07/27 06:05:37;;;;;;;;;;;27.10;92.20;;;;;;4977516;28;20009;-80
2022/07/27 06:08:07;;;;;;;;;;;27.40;91.40;;;;;;4979002;28;19918;-78
2022/07/27 06:10:40;;;;;;;;;;;27.90;91.00;;;;;;4977830;28;19910;-79
2022/07/27 06:13:07;;;;;;;;;;;27.90;90.40;;;;;;4981411;28;20066;-79
2022/07/27 06:15:36;;;;;;;;;;;28.50;89.80;;;;;;4986696;28;19910;-77
2022/07/27 06:18:05;;;;;;;;;;;29.00;86.80;;;;;;4980542;28;20319;-77
2022/07/27 06:20:33;;;;;;;;;;;29.90;84.80;;;;;;4993996;28;19920;-78
2022/07/27 06:22:59;;;;;;;;;;;30.50;82.10;;;;;;4981572;28;19917;-77
2022/07/27 06:25:30;;;;;;;;;;;31.00;79.20;;;;;;4980312;28;19953;-77
2022/07/27 06:27:56;;;;;;;;;;;30.40;80.70;;;;;;4980188;28;19949;-77
2022/07/27 06:30:24;;;;;;;;;;;31.10;77.40;;;;;;4981041;28;19914;-78
2022/07/27 06:32:50;;;;;;;;;;;30.40;80.20;;;;;;4980604;28;19996;-77
2022/07/27 06:35:19;;;;;;;;;;;30.70;78.10;;;;;;4999556;28;19910;-78
2022/07/27 06:37:51;;;;;;;;;;;31.10;77.80;;;;;;4975492;28;20738;-78
2022/07/27 06:40:19;;;;;;;;;;;30.30;76.30;;;;;;4999530;28;19918;-72
2022/07/27 06:42:45;;;;;;;;;;;28.70;81.90;;;;;;4974440;28;19910;-74
2022/07/27 06:45:11;;;;;;;;;;;29.20;81.40;;;;;;4980271;28;19940;-75
2022/07/27 06:47:39;;;;;;;;;;;30.30;79.30;;;;;;4980476;28;20417;-75
2022/07/27 06:50:15;;;;;;;;;;;30.90;76.50;;;;;;4982624;28;20458;-72
2022/07/27 06:52:42;;;;;;;;;;;31.30;75.00;;;;;;4979706;28;19921;-71
2022/07/27 06:55:08;;;;;;;;;;;31.60;74.00;;;;;;4980034;28;19949;-73
2022/07/27 06:57:35;;;;;;;;;;;31.90;73.20;;;;;;4980833;28;19941;-73
2022/07/27 07:00:00;;;;;;;;;;;32.50;72.10;;;;;;4979820;28;19964;-76
2022/07/27 07:02:26;;;;;;;;;;;32.80;70.40;;;;;;4983919;28;20629;-76
2022/07/27 07:04:53;;;;;;;;;;;31.70;71.50;;;;;;4980241;28;20279;-72
2022/07/27 07:07:21;;;;;;;;;;;29.90;74.00;;;;;;4980444;28;19961;-73
2022/07/27 07:09:47;;;;;;;;;;;29.60;76.10;;;;;;4981475;28;19940;-75
2022/07/27 07:12:14;;;;;;;;;;;31.10;72.60;;;;;;4978139;28;19984;-74
2022/07/27 07:14:40;;;;;;;;;;;31.90;70.70;;;;;;4970868;28;19914;-69
2022/07/27 07:17:05;;;;;;;;;;;33.10;67.60;;;;;;4980444;28;20109;-69
2022/07/27 07:19:31;;;;;;;;;;;32.70;67.60;;;;;;4977301;28;20446;-66
2022/07/27 07:21:57;;;;;;;;;;;30.50;71.00;;;;;;4974002;28;19917;-69
2022/07/27 07:24:23;;;;;;;;;;;29.70;72.60;;;;;;4980402;28;19918;-70
2022/07/27 07:26:51;;;;;;;;;;;28.70;75.70;;;;;;4973340;28;19980;-78
2022/07/27 07:29:18;;;;;;;;;;;28.40;78.00;;;;;;4978809;28;20008;-82
2022/07/27 07:31:45;;;;;;;;;;;27.40;80.10;;;;;;4995487;28;19914;-80
2022/07/27 07:34:14;;;;;;;;;;;26.90;82.40;;;;;;4978890;28;20800;-83
2022/07/27 07:36:56;;;;;;;;;;;26.40;84.60;;;;;;4979149;28;19950;-79
2022/07/27 07:39:26;;;;;;;;;;;27.10;83.90;;;;;;4995093;28;19965;-79
2022/07/27 07:41:52;;;;;;;;;;;28.60;80.40;;;;;;4974885;28;20456;-80
2022/07/27 07:44:23;;;;;;;;;;;28.70;78.60;;;;;;4995805;28;20891;-78
2022/07/27 07:46:58;;;;;;;;;;;29.10;77.70;;;;;;4980477;28;19914;-80
2022/07/27 07:49:27;;;;;;;;;;;29.50;76.90;;;;;;4981925;28;19940;-80
2022/07/27 07:52:02;;;;;;;;;;;29.00;77.90;;;;;;4984202;28;19945;-80
2022/07/27 07:54:42;;;;;;;;;;;29.60;76.40;;;;;;4980262;28;20052;-81
2022/07/27 07:57:36;;;;;;;;;;;28.30;78.90;;;;;;4978894;28;19906;-78
2022/07/27 08:00:05;;;;;;;;;;;29.60;78.30;;;;;;4974014;28;21779;-80
2022/07/27 08:02:31;;;;;;;;;;;30.90;74.90;;;;;;4979911;28;20012;-81
2022/07/27 08:04:59;;;;;;;;;;;31.90;71.10;;;;;;4977882;28;20120;-81
2022/07/27 08:07:26;;;;;;;;;;;32.70;70.20;;;;;;4994846;28;19925;-81
2022/07/27 08:09:51;;;;;;;;;;;33.60;66.80;;;;;;4978256;28;19920;-80
2022/07/27 08:12:20;;;;;;;;;;;34.40;66.30;;;;;;4994260;28;20267;-81
2022/07/27 08:14:45;;;;;;;;;;;35.40;62.80;;;;;;4970427;28;19910;-81
2022/07/27 08:17:11;;;;;;;;;;;34.80;62.00;;;;;;4977215;28;19910;-76
2022/07/27 08:19:36;;;;;;;;;;;34.00;63.50;;;;;;4969944;28;19918;-69
2022/07/27 08:22:02;;;;;;;;;;;33.80;64.50;;;;;;4974623;28;19917;-69
2022/07/27 08:24:28;;;;;;;;;;;33.80;64.50;;;;;;4976837;28;20323;-69
2022/07/27 08:26:53;;;;;;;;;;;35.00;62.80;;;;;;4976089;28;20059;-69
2022/07/27 08:29:21;;;;;;;;;;;35.60;61.70;;;;;;4978212;28;19913;-80
2022/07/27 08:31:47;;;;;;;;;;;35.60;61.80;;;;;;4973751;28;19918;-77
2022/07/27 08:34:22;;;;;;;;;;;35.20;61.70;;;;;;4978715;28;19917;-78
2022/07/27 08:36:50;;;;;;;;;;;34.90;62.40;;;;;;4977581;28;20340;-78
2022/07/27 08:39:19;;;;;;;;;;;36.10;60.60;;;;;;4977530;28;19928;-78
2022/07/27 08:41:56;;;;;;;;;;;36.70;59.60;;;;;;4977663;28;19917;-78
2022/07/27 08:44:28;;;;;;;;;;;36.80;58.00;;;;;;4978044;28;19914;-78
2022/07/27 08:46:56;;;;;;;;;;;38.10;56.00;;;;;;4978262;28;19918;-78
2022/07/27 08:49:22;;;;;;;;;;;38.00;55.50;;;;;;4978485;28;20359;-78
2022/07/27 08:51:51;;;;;;;;;;;37.80;54.80;;;;;;4976833;28;19920;-78
2022/07/27 08:54:18;;;;;;;;;;;36.20;56.70;;;;;;4996449;28;19921;-77
2022/07/27 08:56:44;;;;;;;;;;;35.10;58.10;;;;;;4978785;28;20362;-78
2022/07/27 08:59:18;;;;;;;;;;;33.40;60.50;;;;;;4978630;28;20414;-77
2022/07/27 09:01:44;;;;;;;;;;;33.10;61.90;;;;;;4973900;28;19945;-78
2022/07/27 09:04:10;;;;;;;;;;;32.60;62.90;;;;;;4976083;28;19910;-77
2022/07/27 09:06:46;;;;;;;;;;;31.50;64.50;;;;;;4979127;28;19914;-77
2022/07/27 09:09:12;;;;;;;;;;;32.30;64.70;;;;;;4977794;28;19921;-77
2022/07/27 09:12:01;;;;;;;;;;;33.50;62.80;;;;;;4977512;28;20308;-77
2022/07/27 09:17:21;;;;;;;;;;;31.50;65.10;;;;;;4982848;28;19972;-77
2022/07/27 09:19:57;;;;;;;;;;;32.20;66.80;;;;;;4977382;28;19944;-76
2022/07/27 09:22:42;;;;;;;;;;;32.90;63.70;;;;;;4974294;28;19910;-76
2022/07/27 09:25:09;;;;;;;;;;;32.90;62.70;;;;;;4976389;28;19945;-77
2022/07/27 09:27:37;;;;;;;;;;;31.80;65.10;;;;;;4996842;28;20339;-78
2022/07/27 09:30:05;;;;;;;;;;;31.50;66.40;;;;;;4982473;28;19910;-78
2022/07/27 09:32:30;;;;;;;;;;;32.20;66.70;;;;;;5001823;28;19980;-78
2022/07/27 09:34:57;;;;;;;;;;;32.20;64.60;;;;;;4977810;28;20452;-78
2022/07/27 09:37:26;;;;;;;;;;;31.50;67.50;;;;;;4980463;28;20666;-75
2022/07/27 09:40:12;;;;;;;;;;;31.80;65.80;;;;;;4980632;28;19921;-74
2022/07/27 09:42:38;;;;;;;;;;;31.70;65.90;;;;;;4981008;28;19914;-76
2022/07/27 09:45:25;;;;;;;;;;;30.50;69.40;;;;;;5001382;28;19909;-79
2022/07/27 09:47:53;;;;;;;;;;;29.40;72.20;;;;;;4981904;28;20443;-78
2022/07/27 09:50:26;;;;;;;;;;;29.10;74.70;;;;;;4979426;28;20016;-78
2022/07/27 09:53:09;;;;;;;;;;;29.60;74.40;;;;;;4979705;28;19968;-78
2022/07/27 09:55:35;;;;;;;;;;;29.80;72.30;;;;;;4979325;28;20149;-76
2022/07/27 09:58:03;;;;;;;;;;;29.40;73.60;;;;;;4986649;28;19910;-77
2022/07/27 10:00:30;;;;;;;;;;;29.50;75.00;;;;;;4982034;28;19910;-76
2022/07/27 10:02:58;;;;;;;;;;;29.70;74.70;;;;;;4982589;28;20275;-77
2022/07/27 10:05:30;;;;;;;;;;;30.40;73.80;;;;;;4982048;28;19940;-81
2022/07/27 10:07:57;;;;;;;;;;;29.40;75.60;;;;;;4982489;28;20527;-81
2022/07/27 10:10:25;;;;;;;;;;;29.40;75.10;;;;;;4995518;28;19980;-79
2022/07/27 10:13:01;;;;;;;;;;;30.50;74.70;;;;;;4981607;28;19922;-78
2022/07/27 10:15:34;;;;;;;;;;;31.50;71.10;;;;;;4980297;28;20023;-76
2022/07/27 10:18:07;;;;;;;;;;;31.90;69.90;;;;;;4984759;28;19956;-79
2022/07/27 10:20:37;;;;;;;;;;;30.50;71.60;;;;;;4991596;28;19953;-78
2022/07/27 10:23:03;;;;;;;;;;;29.00;73.90;;;;;;4982407;28;20401;-77
2022/07/27 10:25:30;;;;;;;;;;;29.10;75.20;;;;;;5004589;28;19910;-77
2022/07/27 10:28:16;;;;;;;;;;;29.60;74.30;;;;;;4981454;28;19928;-80
2022/07/27 10:30:44;;;;;;;;;;;28.90;75.00;;;;;;4979351;28;19996;-78
2022/07/27 10:33:13;;;;;;;;;;;28.50;75.90;;;;;;4982912;28;20371;-79
2022/07/27 10:35:41;;;;;;;;;;;28.30;77.00;;;;;;4975766;28;19988;-81
2022/07/27 10:38:21;;;;;;;;;;;28.20;78.20;;;;;;4982590;28;20443;-79
2022/07/27 10:41:06;;;;;;;;;;;27.80;79.40;;;;;;4978277;28;19918;-79
2022/07/27 10:43:32;;;;;;;;;;;27.10;81.40;;;;;;4981061;28;20447;-80
2022/07/27 10:45:58;;;;;;;;;;;26.40;84.50;;;;;;4980915;28;20004;-80
2022/07/27 10:48:39;;;;;;;;;;;26.50;85.20;;;;;;4979878;28;19914;-81
2022/07/27 10:51:08;;;;;;;;;;;26.40;85.00;;;;;;4983192;28;20004;-79
2022/07/27 10:53:36;;;;;;;;;;;26.20;87.10;;;;;;4985577;28;19950;-75
2022/07/27 10:56:04;;;;;;;;;;;26.40;86.90;;;;;;4982173;28;19910;-76
2022/07/27 10:58:30;;;;;;;;;;;26.10;87.20;;;;;;4975959;28;20471;-76
2022/07/27 11:01:01;;;;;;;;;;;26.00;88.70;;;;;;4978442;28;20020;-75
2022/07/27 11:03:31;;;;;;;;;;;25.60;90.00;;;;;;4984860;28;19971;-76
2022/07/27 11:06:06;;;;;;;;;;;25.50;90.50;;;;;;4974463;28;19913;-76
2022/07/27 11:08:33;;;;;;;;;;;25.40;91.00;;;;;;4978139;28;20369;-76
2022/07/27 11:10:59;;;;;;;;;;;25.50;91.10;;;;;;4979105;28;19914;-76
2022/07/27 11:13:26;;;;;;;;;;;25.50;91.10;;;;;;4980144;28;19976;-76
2022/07/27 11:15:52;;;;;;;;;;;25.60;91.10;;;;;;4974989;28;20009;-76
2022/07/27 11:18:23;;;;;;;;;;;25.50;91.50;;;;;;4980064;28;19984;-77
2022/07/27 11:20:49;;;;;;;;;;;25.60;91.60;;;;;;4978958;28;19909;-76
2022/07/27 11:23:18;;;;;;;;;;;25.50;92.00;;;;;;4979526;28;19924;-76
2022/07/27 11:25:59;;;;;;;;;;;25.50;92.20;;;;;;4979564;28;20060;-76
2022/07/27 11:28:29;;;;;;;;;;;25.60;92.50;;;;;;4979514;28;19941;-76
2022/07/27 11:30:56;;;;;;;;;;;25.60;92.40;;;;;;4972382;28;19910;-76
2022/07/27 11:33:22;;;;;;;;;;;25.70;92.70;;;;;;4980021;28;19914;-76
2022/07/27 11:36:06;;;;;;;;;;;25.70;92.30;;;;;;4983159;28;19925;-76
2022/07/27 11:39:04;;;;;;;;;;;25.70;92.50;;;;;;4977101;28;20373;-76
2022/07/27 11:41:31;;;;;;;;;;;26.00;92.30;;;;;;4946700;28;19922;-76
2022/07/27 11:44:00;;;;;;;;;;;25.90;92.60;;;;;;4983384;28;20295;-75
2022/07/27 11:46:28;;;;;;;;;;;25.90;92.70;;;;;;4974195;28;20367;-76
2022/07/27 11:49:00;;;;;;;;;;;25.90;91.40;;;;;;4977962;28;19972;-76
2022/07/27 11:51:26;;;;;;;;;;;25.80;83.90;;;;;;4978514;28;21442;-76
2022/07/27 11:53:55;;;;;;;;;;;25.40;79.90;;;;;;4979686;28;19910;-76
2022/07/27 11:56:28;;;;;;;;;;;24.90;80.80;;;;;;4978966;28;19916;-76
2022/07/27 11:59:01;;;;;;;;;;;24.40;85.60;;;;;;4979336;28;20422;-77
2022/07/27 12:01:28;;;;;;;;;;;23.90;87.70;;;;;;4978626;28;20496;-77
2022/07/27 12:04:03;;;;;;;;;;;23.60;90.30;;;;;;4979246;28;20004;-76
2022/07/27 12:06:33;;;;;;;;;;;23.50;90.80;;;;;;4978003;28;19910;-73
2022/07/27 12:09:02;;;;;;;;;;;23.60;90.80;;;;;;4977824;28;20381;-74
2022/07/27 12:11:43;;;;;;;;;;;23.60;91.50;;;;;;4978614;28;19910;-76
2022/07/27 12:14:12;;;;;;;;;;;23.70;92.00;;;;;;4977558;28;19996;-76
2022/07/27 12:16:39;;;;;;;;;;;23.80;90.70;;;;;;4981627;28;19932;-76
2022/07/27 12:19:05;;;;;;;;;;;23.30;90.20;;;;;;4975254;28;20409;-76
2022/07/27 12:21:32;;;;;;;;;;;23.40;88.90;;;;;;4978366;28;19918;-77
2022/07/27 12:24:00;;;;;;;;;;;23.50;88.40;;;;;;4977885;28;20992;-76
2022/07/27 12:26:26;;;;;;;;;;;23.90;88.20;;;;;;4999393;28;19909;-77
2022/07/27 12:29:10;;;;;;;;;;;24.30;89.40;;;;;;4978900;28;20001;-77
2022/07/27 12:31:36;;;;;;;;;;;24.70;90.00;;;;;;4978292;28;20382;-76
2022/07/27 12:34:06;;;;;;;;;;;24.50;91.20;;;;;;4978082;28;19917;-76
2022/07/27 12:36:31;;;;;;;;;;;24.30;92.30;;;;;;4976915;28;19951;-76
2022/07/27 12:38:58;;;;;;;;;;;24.30;92.50;;;;;;4979136;28;19921;-76
2022/07/27 12:41:25;;;;;;;;;;;24.70;91.70;;;;;;4972177;28;20402;-76
2022/07/27 12:44:14;;;;;;;;;;;24.90;90.70;;;;;;4976337;28;19918;-77
2022/07/27 12:47:00;;;;;;;;;;;25.10;90.90;;;;;;4975975;28;19909;-76
2022/07/27 12:49:33;;;;;;;;;;;25.40;88.60;;;;;;4974731;28;20464;-76
2022/07/27 12:52:09;;;;;;;;;;;25.70;84.90;;;;;;4992875;28;19967;-76
2022/07/27 12:54:35;;;;;;;;;;;25.90;85.90;;;;;;4976322;28;19972;-76
2022/07/27 12:57:02;;;;;;;;;;;25.90;85.10;;;;;;4977446;28;19909;-76
2022/07/27 12:59:28;;;;;;;;;;;25.90;87.20;;;;;;4977133;28;20359;-75
2022/07/27 13:01:55;;;;;;;;;;;25.80;88.50;;;;;;4980443;28;20004;-76
2022/07/27 13:04:21;;;;;;;;;;;25.80;88.90;;;;;;4984580;28;19952;-76
2022/07/27 13:06:47;;;;;;;;;;;25.90;89.10;;;;;;4997968;28;20426;-76
2022/07/27 13:09:13;;;;;;;;;;;25.90;88.20;;;;;;4980245;28;19922;-76
2022/07/27 13:11:40;;;;;;;;;;;25.90;88.00;;;;;;4982949;28;19909;-77
2022/07/27 13:14:07;;;;;;;;;;;26.00;86.60;;;;;;5008091;28;20308;-88
2022/07/27 13:16:33;;;;;;;;;;;26.10;85.10;;;;;;4985267;28;19925;-92
2022/07/27 13:19:00;;;;;;;;;;;26.10;84.40;;;;;;4986841;28;20008;-91
2022/07/27 13:21:28;;;;;;;;;;;26.10;83.80;;;;;;5005300;28;19918;-91
2022/07/27 13:23:54;;;;;;;;;;;26.20;82.80;;;;;;4988495;28;20001;-88
2022/07/27 13:26:21;;;;;;;;;;;26.20;82.90;;;;;;4982418;28;20329;-89
2022/07/27 13:28:49;;;;;;;;;;;26.20;81.60;;;;;;4987302;28;19980;-89
2022/07/27 13:31:17;;;;;;;;;;;26.20;81.90;;;;;;4989415;28;19910;-89
2022/07/27 13:33:47;;;;;;;;;;;26.20;84.70;;;;;;4989727;28;19921;-89
2022/07/27 13:36:41;;;;;;;;;;;26.00;83.60;;;;;;4985932;28;19910;-89
2022/07/27 13:39:21;;;;;;;;;;;25.90;84.10;;;;;;4997032;28;20365;-89
2022/07/27 13:45:00;;;;;;;;;;;25.70;82.70;;;;;;5002820;23;19937;-84
2022/07/27 13:47:56;;;;;;;;;;;25.60;82.70;;;;;;4966394;28;20084;-87
2022/07/27 13:50:41;;;;;;;;;;;25.50;84.80;;;;;;4960124;28;19953;-88
2022/07/27 13:53:08;;;;;;;;;;;25.60;84.20;;;;;;4967184;28;19921;-86
2022/07/27 13:55:43;;;;;;;;;;;25.70;84.70;;;;;;4945100;28;19911;-87
2022/07/27 13:58:12;;;;;;;;;;;25.70;84.90;;;;;;4964449;28;19998;-91
2022/07/27 14:00:54;;;;;;;;;;;25.80;85.10;;;;;;4952088;28;19910;-91
2022/07/27 14:06:22;;;;;;;;;;;26.00;85.40;;;;;;4951138;28;20338;-91
2022/07/27 14:08:50;;;;;;;;;;;26.00;86.10;;;;;;4953678;28;19942;-91
2022/07/27 14:11:16;;;;;;;;;;;25.90;86.40;;;;;;4948910;28;19911;-91
2022/07/27 14:13:49;;;;;;;;;;;25.90;86.90;;;;;;4951928;28;19921;-91
2022/07/27 14:19:18;;;;;;;;;;;25.80;87.30;;;;;;4953430;28;19929;-90
2022/07/27 14:21:48;;;;;;;;;;;25.90;87.50;;;;;;4942675;28;20288;-91
2022/07/27 14:24:14;;;;;;;;;;;26.00;86.30;;;;;;4946906;28;19918;-91
2022/07/27 14:26:47;;;;;;;;;;;26.10;86.40;;;;;;4949703;28;19918;-91
2022/07/27 14:29:39;;;;;;;;;;;26.30;86.00;;;;;;4949909;28;19942;-91
2022/07/27 14:32:10;;;;;;;;;;;26.40;85.30;;;;;;4961458;28;19922;-92
2022/07/27 14:34:36;;;;;;;;;;;26.50;84.70;;;;;;4947091;28;19910;-92
2022/07/27 14:37:07;;;;;;;;;;;26.50;85.20;;;;;;4966194;28;19910;-90
2022/07/27 14:39:38;;;;;;;;;;;26.40;86.60;;;;;;4946433;28;19918;-82
2022/07/27 14:42:07;;;;;;;;;;;26.40;86.90;;;;;;4939492;28;19923;-87